Time;durP1;ratioP1;P1;durP2;ratioP2;P2;SDS_P1;SDS_P2;PMS_P1;PMS_P2;Temp;Humidity;BMP_temperature;BMP_pressure;BME280_temperature;BME280_humidity;BME280_pressure;Samples;Min_cycle;Max_cycle;Signal;HPM_P1;HPM_P2
2022/04/15 00:00:39;;;;;;;21.93;10.07;;;10.00;99.90;;;;;;5034073;28;20268;-82
2022/04/15 00:03:06;;;;;;;20.37;10.00;;;10.10;99.90;;;;;;5033932;28;20699;-82
2022/04/15 00:05:40;;;;;;;17.40;9.73;;;10.00;99.90;;;;;;5033794;28;20197;-81
2022/04/15 00:08:13;;;;;;;20.53;9.73;;;10.00;99.90;;;;;;5034082;28;20177;-82
2022/04/15 00:10:45;;;;;;;17.33;9.00;;;9.90;99.90;;;;;;5051694;28;20193;-81
2022/04/15 00:13:12;;;;;;;17.33;9.10;;;9.80;99.90;;;;;;5034042;28;20282;-81
2022/04/15 00:15:39;;;;;;;20.13;9.47;;;9.80;99.90;;;;;;5035183;28;20190;-82
2022/04/15 00:18:05;;;;;;;15.43;8.93;;;9.80;99.90;;;;;;5033955;28;20201;-81
2022/04/15 00:20:31;;;;;;;17.43;9.30;;;9.80;99.90;;;;;;5037020;28;20552;-82
2022/04/15 00:22:58;;;;;;;20.87;9.63;;;9.80;99.90;;;;;;5037157;28;20241;-81
2022/04/15 00:25:24;;;;;;;18.87;9.00;;;9.70;99.90;;;;;;5037136;28;20205;-82
2022/04/15 00:27:51;;;;;;;19.83;9.40;;;9.70;99.90;;;;;;5037182;28;20640;-81
2022/04/15 00:30:17;;;;;;;20.70;9.40;;;9.60;99.90;;;;;;5036623;28;20208;-81
2022/04/15 00:32:44;;;;;;;20.47;9.97;;;9.60;99.90;;;;;;5037030;28;20209;-81
2022/04/15 00:35:10;;;;;;;15.77;9.07;;;9.50;99.90;;;;;;5037146;28;20180;-82
2022/04/15 00:37:36;;;;;;;22.00;9.80;;;9.50;99.90;;;;;;5037154;28;20596;-82
2022/04/15 00:40:03;;;;;;;22.20;8.90;;;9.40;99.90;;;;;;5036974;28;20232;-81
2022/04/15 00:42:29;;;;;;;24.63;9.90;;;9.50;99.90;;;;;;5036863;28;20227;-81
2022/04/15 00:44:57;;;;;;;22.60;9.90;;;9.40;99.90;;;;;;5037074;28;20272;-82
2022/04/15 00:47:38;;;;;;;17.47;9.50;;;9.40;99.90;;;;;;5036883;28;20204;-82
2022/04/15 00:50:05;;;;;;;13.43;8.87;;;9.30;99.90;;;;;;5036908;28;20208;-82
2022/04/15 00:52:37;;;;;;;22.10;10.17;;;9.30;99.90;;;;;;5037216;28;20238;-81
2022/04/15 00:55:04;;;;;;;20.80;10.00;;;9.20;99.90;;;;;;5037581;28;20176;-82
2022/04/15 00:57:31;;;;;;;19.43;8.60;;;9.30;99.90;;;;;;5037794;28;20268;-82
2022/04/15 01:00:00;;;;;;;19.67;9.33;;;9.20;99.90;;;;;;5037724;28;20187;-82
2022/04/15 01:02:28;;;;;;;22.53;9.70;;;9.10;99.90;;;;;;5037410;28;20173;-82
2022/04/15 01:04:56;;;;;;;18.33;9.60;;;9.20;99.90;;;;;;5037736;28;20187;-82
2022/04/15 01:07:33;;;;;;;18.77;9.93;;;9.30;99.90;;;;;;5037880;28;20198;-82
2022/04/15 01:10:01;;;;;;;23.00;8.63;;;9.20;99.90;;;;;;5037994;28;20653;-82
2022/04/15 01:12:29;;;;;;;21.37;9.70;;;9.10;99.90;;;;;;5055405;28;20224;-81
2022/04/15 01:15:00;;;;;;;20.53;9.50;;;9.10;99.90;;;;;;5037291;28;20173;-82
2022/04/15 01:17:28;;;;;;;18.73;9.73;;;9.10;99.90;;;;;;5037468;28;20196;-82
2022/04/15 01:19:54;;;;;;;20.60;10.03;;;9.10;99.90;;;;;;5037143;28;20725;-82
2022/04/15 01:22:23;;;;;;;23.67;9.97;;;9.00;99.90;;;;;;5037329;28;20673;-82
2022/04/15 01:24:52;;;;;;;18.67;10.30;;;8.90;99.90;;;;;;5037474;28;20195;-81
2022/04/15 01:27:39;;;;;;;20.10;10.33;;;9.00;99.90;;;;;;5036807;28;20204;-81
2022/04/15 01:30:09;;;;;;;20.20;10.73;;;8.90;99.90;;;;;;5054895;28;20245;-82
2022/04/15 01:32:35;;;;;;;21.63;10.97;;;9.10;99.90;;;;;;5036302;28;20213;-81
2022/04/15 01:35:01;;;;;;;20.60;11.60;;;9.00;99.90;;;;;;5037245;28;20670;-81
2022/04/15 01:37:30;;;;;;;25.07;11.20;;;9.20;99.90;;;;;;5037056;28;20214;-81
2022/04/15 01:39:56;;;;;;;20.73;12.03;;;9.20;99.90;;;;;;5037062;28;20174;-82
2022/04/15 01:42:22;;;;;;;23.23;11.57;;;9.20;99.90;;;;;;5036608;28;20669;-81
2022/04/15 01:44:48;;;;;;;25.67;12.93;;;9.20;99.90;;;;;;5036965;28;20264;-82
2022/04/15 01:47:13;;;;;;;25.10;13.03;;;9.20;99.90;;;;;;5036943;28;20258;-82
2022/04/15 01:49:39;;;;;;;25.80;13.37;;;9.30;99.90;;;;;;5036374;28;20182;-81
2022/04/15 01:52:05;;;;;;;31.87;14.30;;;9.30;99.90;;;;;;5036581;28;20205;-82
2022/04/15 01:54:31;;;;;;;26.43;14.27;;;9.20;99.90;;;;;;5036029;28;20660;-81
2022/04/15 01:56:57;;;;;;;28.47;14.43;;;9.20;99.90;;;;;;5036719;28;20194;-82
2022/04/15 01:59:24;;;;;;;29.77;13.73;;;9.30;99.90;;;;;;5036598;28;20206;-82
2022/04/15 02:01:54;;;;;;;28.17;13.83;;;9.30;99.90;;;;;;5035812;28;20181;-82
2022/04/15 02:04:24;;;;;;;26.27;13.50;;;9.10;99.90;;;;;;5036231;28;20171;-81
2022/04/15 02:06:49;;;;;;;27.00;12.43;;;9.10;99.90;;;;;;5036128;28;20656;-82
2022/04/15 02:09:15;;;;;;;24.90;11.70;;;9.00;99.90;;;;;;5035996;28;20247;-82
2022/04/15 02:11:41;;;;;;;23.47;12.10;;;9.00;99.90;;;;;;5035608;28;20207;-82
2022/04/15 02:14:07;;;;;;;21.30;11.80;;;9.00;99.90;;;;;;5035867;28;20261;-81
2022/04/15 02:16:34;;;;;;;23.07;12.00;;;9.00;99.90;;;;;;5035840;28;20197;-82
2022/04/15 02:19:00;;;;;;;27.17;12.50;;;9.00;99.90;;;;;;5036724;28;20179;-82
2022/04/15 02:21:25;;;;;;;24.93;12.20;;;9.00;99.90;;;;;;5037274;28;20537;-82
2022/04/15 02:23:51;;;;;;;31.13;14.27;;;8.90;99.90;;;;;;5055638;28;20181;-83
2022/04/15 02:26:17;;;;;;;27.97;13.73;;;8.80;99.90;;;;;;5036844;28;20193;-82
2022/04/15 02:28:42;;;;;;;30.13;14.00;;;8.80;99.90;;;;;;5037553;28;20665;-81
2022/04/15 02:31:08;;;;;;;27.53;14.13;;;8.60;99.90;;;;;;5037302;28;20625;-82
2022/04/15 02:33:36;;;;;;;29.60;14.20;;;8.70;99.90;;;;;;5055386;28;20201;-82
2022/04/15 02:36:02;;;;;;;27.20;14.57;;;8.80;99.90;;;;;;5037696;28;20254;-82
2022/04/15 02:38:28;;;;;;;30.83;14.17;;;8.90;99.90;;;;;;5037314;28;20167;-82
2022/04/15 02:40:54;;;;;;;30.30;13.80;;;8.80;99.90;;;;;;5036616;28;20169;-82
2022/04/15 02:43:20;;;;;;;27.67;13.13;;;8.70;99.90;;;;;;5037193;28;20191;-83
2022/04/15 02:45:47;;;;;;;26.93;13.47;;;8.80;99.90;;;;;;5036616;28;20205;-82
2022/04/15 02:48:13;;;;;;;32.27;12.97;;;8.80;99.90;;;;;;5037193;28;20181;-82
2022/04/15 02:50:39;;;;;;;24.63;11.87;;;8.70;99.90;;;;;;5036603;28;20183;-82
2022/04/15 02:53:08;;;;;;;20.43;10.03;;;8.70;99.90;;;;;;5037148;28;20249;-82
2022/04/15 02:55:34;;;;;;;22.10;10.47;;;8.60;99.90;;;;;;5037222;28;20193;-82
2022/04/15 02:57:59;;;;;;;20.37;10.30;;;8.50;99.90;;;;;;5037598;28;20185;-82
2022/04/15 03:00:25;;;;;;;20.83;10.03;;;8.40;99.90;;;;;;5037556;28;20165;-82
2022/04/15 03:02:50;;;;;;;20.43;10.30;;;8.40;99.90;;;;;;5037309;28;20188;-82
2022/04/15 03:05:16;;;;;;;15.43;9.50;;;8.30;99.90;;;;;;5036387;28;20174;-82
2022/04/15 03:07:42;;;;;;;19.00;9.93;;;8.10;99.90;;;;;;5037082;28;20635;-82
2022/04/15 03:10:08;;;;;;;21.07;9.87;;;8.20;99.90;;;;;;5037007;28;20173;-82
2022/04/15 03:12:38;;;;;;;20.07;9.27;;;8.20;99.90;;;;;;5036357;28;20198;-82
2022/04/15 03:15:05;;;;;;;19.93;9.37;;;8.10;99.90;;;;;;5038243;28;20231;-82
2022/04/15 03:17:31;;;;;;;14.97;9.47;;;8.20;99.90;;;;;;5037590;28;20663;-83
2022/04/15 03:19:57;;;;;;;16.27;9.33;;;8.20;99.90;;;;;;5036886;28;20169;-82
2022/04/15 03:22:22;;;;;;;15.93;9.20;;;8.10;99.90;;;;;;5055271;28;20181;-83
2022/04/15 03:24:50;;;;;;;18.97;9.63;;;8.00;99.90;;;;;;5037199;28;20940;-81
2022/04/15 03:27:16;;;;;;;18.97;10.00;;;7.90;99.90;;;;;;5036847;28;20204;-82
2022/04/15 03:29:43;;;;;;;19.70;9.93;;;8.00;99.90;;;;;;5037508;28;20173;-82
2022/04/15 03:32:09;;;;;;;24.20;11.23;;;8.10;99.90;;;;;;5036749;28;20211;-81
2022/04/15 03:34:36;;;;;;;24.70;10.23;;;8.00;99.90;;;;;;5035508;28;20193;-82
2022/04/15 03:37:03;;;;;;;17.87;9.87;;;8.10;99.90;;;;;;5035683;28;20225;-82
2022/04/15 03:39:29;;;;;;;24.03;10.97;;;8.00;99.90;;;;;;5036618;28;20192;-82
2022/04/15 03:41:54;;;;;;;24.43;11.30;;;7.90;99.90;;;;;;5036906;28;20779;-82
2022/04/15 03:44:20;;;;;;;22.03;10.57;;;8.00;99.90;;;;;;5037572;28;20184;-82
2022/04/15 03:46:45;;;;;;;23.50;11.17;;;8.20;99.90;;;;;;5036982;28;20288;-82
2022/04/15 03:49:11;;;;;;;25.03;11.90;;;8.20;99.90;;;;;;5036465;28;20181;-82
2022/04/15 03:51:37;;;;;;;21.40;11.47;;;8.20;99.90;;;;;;5036362;28;20205;-81
2022/04/15 03:54:02;;;;;;;20.87;11.20;;;8.30;99.90;;;;;;5036762;28;20187;-82
2022/04/15 03:56:28;;;;;;;24.43;12.10;;;8.20;99.90;;;;;;5040447;28;20251;-82
2022/04/15 03:58:54;;;;;;;24.60;12.90;;;8.30;99.90;;;;;;5040584;28;20548;-82
2022/04/15 04:01:19;;;;;;;27.70;12.20;;;8.20;99.90;;;;;;5040283;28;20184;-82
2022/04/15 04:03:45;;;;;;;27.63;12.90;;;8.20;99.90;;;;;;5040986;28;20181;-81
2022/04/15 04:06:11;;;;;;;25.63;13.07;;;8.20;99.90;;;;;;5040663;28;20202;-82
2022/04/15 04:08:37;;;;;;;33.63;14.03;;;8.30;99.90;;;;;;5058722;28;20165;-82
2022/04/15 04:11:03;;;;;;;31.73;13.63;;;8.40;99.90;;;;;;5040609;28;20176;-82
2022/04/15 04:13:28;;;;;;;29.63;13.43;;;8.40;99.90;;;;;;5040996;28;20201;-82
2022/04/15 04:15:54;;;;;;;28.50;12.47;;;8.40;99.90;;;;;;5040442;28;20684;-82
2022/04/15 04:18:21;;;;;;;27.73;12.97;;;8.40;99.90;;;;;;5040206;28;20192;-83
2022/04/15 04:20:50;;;;;;;27.30;13.83;;;8.30;99.90;;;;;;5040109;28;20260;-83
2022/04/15 04:23:16;;;;;;;26.77;13.73;;;8.40;99.90;;;;;;5040381;28;20215;-82
2022/04/15 04:25:41;;;;;;;23.73;13.10;;;8.40;99.90;;;;;;5040591;28;20193;-82
2022/04/15 04:28:07;;;;;;;24.63;12.73;;;8.40;99.90;;;;;;5039787;28;20173;-82
2022/04/15 04:30:33;;;;;;;26.97;12.63;;;8.30;99.90;;;;;;5038135;28;20270;-82
2022/04/15 04:32:59;;;;;;;21.07;11.90;;;8.40;99.90;;;;;;5037380;28;20799;-82
2022/04/15 04:35:25;;;;;;;24.53;11.77;;;8.30;99.90;;;;;;5037836;28;20229;-82
2022/04/15 04:37:51;;;;;;;22.50;11.87;;;8.40;99.90;;;;;;5037547;28;20173;-81
2022/04/15 04:40:18;;;;;;;21.80;11.80;;;8.30;99.90;;;;;;5037634;28;20182;-82
2022/04/15 04:42:45;;;;;;;20.93;12.00;;;8.30;99.90;;;;;;5037277;28;20181;-82
2022/04/15 04:45:11;;;;;;;24.50;11.87;;;8.40;99.90;;;;;;5037567;28;20551;-82
2022/04/15 04:47:43;;;;;;;21.60;11.40;;;8.40;99.90;;;;;;5037335;28;20269;-82
2022/04/15 04:50:09;;;;;;;21.03;11.43;;;8.30;99.90;;;;;;5039262;28;20283;-84
2022/04/15 04:52:36;;;;;;;25.50;11.00;;;8.40;99.90;;;;;;5040041;28;20206;-82
2022/04/15 04:55:03;;;;;;;24.27;11.20;;;8.30;99.90;;;;;;5040879;28;20180;-82
2022/04/15 04:57:29;;;;;;;24.40;11.70;;;8.40;99.90;;;;;;5040595;28;20180;-82
2022/04/15 04:59:56;;;;;;;22.20;11.87;;;8.50;99.90;;;;;;5038077;28;20561;-82
2022/04/15 05:02:22;;;;;;;20.00;11.63;;;8.60;99.90;;;;;;5038491;28;20205;-82
2022/04/15 05:04:47;;;;;;;18.20;10.63;;;8.60;99.90;;;;;;5039189;28;20587;-82
2022/04/15 05:07:14;;;;;;;22.87;10.83;;;8.50;99.90;;;;;;5038257;28;20200;-81
2022/04/15 05:09:41;;;;;;;18.77;9.70;;;8.50;99.90;;;;;;5039587;28;20184;-82
2022/04/15 05:12:09;;;;;;;17.27;10.30;;;8.60;99.90;;;;;;5038965;28;20266;-82
2022/04/15 05:14:34;;;;;;;16.60;9.47;;;8.60;99.90;;;;;;5039487;28;20176;-82
2022/04/15 05:17:00;;;;;;;15.43;9.47;;;8.70;99.90;;;;;;5038622;28;20220;-82
2022/04/15 05:19:25;;;;;;;19.20;10.00;;;8.60;99.90;;;;;;5039058;28;20723;-82
2022/04/15 05:21:52;;;;;;;16.93;9.70;;;8.60;99.90;;;;;;5038534;28;20184;-81
2022/04/15 05:24:18;;;;;;;16.40;8.73;;;8.60;99.90;;;;;;5038697;28;20609;-83
2022/04/15 05:26:44;;;;;;;15.43;9.23;;;8.70;99.90;;;;;;5039128;28;20201;-82
2022/04/15 05:29:10;;;;;;;14.10;8.67;;;8.70;99.90;;;;;;5041741;28;20738;-82
2022/04/15 05:31:35;;;;;;;19.57;8.60;;;8.50;99.90;;;;;;5038715;28;20178;-82
2022/04/15 05:34:02;;;;;;;18.97;9.13;;;8.60;99.90;;;;;;5039394;28;20173;-82
2022/04/15 05:36:27;;;;;;;13.40;8.07;;;8.60;99.90;;;;;;5037987;28;20191;-82
2022/04/15 05:38:53;;;;;;;14.27;8.60;;;8.50;99.90;;;;;;5038234;28;20207;-81
2022/04/15 05:41:19;;;;;;;17.63;7.93;;;8.60;99.90;;;;;;5039445;28;20173;-81
2022/04/15 05:43:46;;;;;;;12.47;7.23;;;8.50;99.90;;;;;;5038533;28;20182;-81
2022/04/15 05:46:11;;;;;;;13.23;7.43;;;8.50;99.90;;;;;;5038053;28;20229;-82
2022/04/15 05:48:37;;;;;;;15.57;8.83;;;8.70;99.90;;;;;;5038364;28;20169;-81
2022/04/15 05:51:03;;;;;;;15.17;8.17;;;8.70;99.90;;;;;;5035733;28;20173;-81
2022/04/15 05:53:29;;;;;;;13.27;8.33;;;8.50;99.90;;;;;;5035862;28;20608;-81
2022/04/15 05:55:55;;;;;;;17.50;9.07;;;8.60;99.90;;;;;;5036038;28;20197;-82
2022/04/15 05:58:21;;;;;;;15.23;8.60;;;8.60;99.90;;;;;;5035633;28;20240;-82
2022/04/15 06:00:47;;;;;;;16.67;8.97;;;8.60;99.90;;;;;;5035927;28;20174;-81
2022/04/15 06:03:12;;;;;;;14.30;8.30;;;8.60;99.90;;;;;;5035560;28;20258;-81
2022/04/15 06:05:38;;;;;;;19.87;8.97;;;8.60;99.90;;;;;;5035970;28;20192;-81
2022/04/15 06:08:04;;;;;;;20.37;9.50;;;8.50;99.90;;;;;;5035903;28;20219;-81
2022/04/15 06:10:30;;;;;;;18.83;9.53;;;8.50;99.90;;;;;;5035547;28;20175;-81
2022/04/15 06:13:08;;;;;;;20.63;9.67;;;8.60;99.90;;;;;;5035386;28;20194;-82
2022/04/15 06:15:41;;;;;;;23.03;9.00;;;8.70;99.90;;;;;;5035399;28;20584;-81
2022/04/15 06:18:07;;;;;;;19.53;9.90;;;8.50;99.90;;;;;;5034630;28;20180;-83
2022/04/15 06:20:34;;;;;;;17.37;9.90;;;8.50;99.90;;;;;;5035539;28;20206;-82
2022/04/15 06:23:00;;;;;;;14.47;9.03;;;8.50;99.90;;;;;;5035352;28;20224;-82
2022/04/15 06:25:27;;;;;;;18.53;9.70;;;8.60;99.90;;;;;;5036621;28;20664;-83
2022/04/15 06:27:54;;;;;;;20.70;9.97;;;8.50;99.90;;;;;;5038651;28;20651;-82
2022/04/15 06:30:21;;;;;;;16.83;9.07;;;8.60;99.90;;;;;;5038368;28;20178;-84
2022/04/15 06:32:47;;;;;;;15.90;9.40;;;8.40;99.90;;;;;;5038238;28;20190;-83
2022/04/15 06:35:13;;;;;;;21.27;9.93;;;8.40;99.90;;;;;;5038885;28;20322;-82
2022/04/15 06:37:39;;;;;;;18.73;10.33;;;8.50;99.90;;;;;;5039092;28;20176;-83
2022/04/15 06:40:05;;;;;;;17.07;9.87;;;8.50;99.90;;;;;;5039213;28;20166;-83
2022/04/15 06:42:31;;;;;;;19.20;10.27;;;8.40;99.90;;;;;;5038057;28;20178;-82
2022/04/15 06:44:59;;;;;;;20.47;10.03;;;8.50;99.90;;;;;;5038467;28;20183;-82
2022/04/15 06:47:25;;;;;;;20.27;10.23;;;8.60;99.90;;;;;;5038232;28;20196;-82
2022/04/15 06:49:50;;;;;;;21.20;10.27;;;8.50;99.90;;;;;;5038118;28;20696;-82
2022/04/15 06:52:17;;;;;;;19.93;10.00;;;8.60;99.90;;;;;;5037798;28;20185;-81
2022/04/15 06:54:44;;;;;;;24.03;10.27;;;8.70;99.90;;;;;;5038150;28;20198;-82
2022/04/15 06:57:09;;;;;;;19.73;10.30;;;8.70;99.90;;;;;;5037341;28;20189;-82
2022/04/15 06:59:35;;;;;;;16.60;9.67;;;8.60;99.90;;;;;;5036579;28;20185;-82
2022/04/15 07:02:01;;;;;;;18.13;9.70;;;8.70;99.90;;;;;;5037512;28;20190;-82
2022/04/15 07:04:28;;;;;;;17.53;9.40;;;8.80;99.90;;;;;;5048491;23;20316;-82
2022/04/15 07:06:54;;;;;;;17.90;10.10;;;8.70;99.90;;;;;;5039140;28;20177;-82
2022/04/15 07:09:20;;;;;;;18.30;9.27;;;8.70;99.90;;;;;;5037961;28;20729;-82
2022/04/15 07:11:46;;;;;;;20.27;9.00;;;8.90;99.90;;;;;;5038353;28;20228;-82
2022/04/15 07:14:11;;;;;;;14.20;8.47;;;8.80;99.90;;;;;;5040122;28;20169;-82
2022/04/15 07:16:37;;;;;;;15.37;8.93;;;8.60;99.90;;;;;;5023339;28;20514;-82
2022/04/15 07:19:04;;;;;;;13.80;8.20;;;8.70;99.90;;;;;;5054321;23;20232;-78
2022/04/15 07:21:41;;;;;;;13.67;7.93;;;8.70;99.90;;;;;;5052137;28;20232;-79
2022/04/15 07:24:07;;;;;;;13.30;7.80;;;9.00;99.90;;;;;;5034547;28;20564;-78
2022/04/15 07:26:33;;;;;;;15.67;8.23;;;9.00;99.90;;;;;;5052240;28;20169;-78
2022/04/15 07:28:59;;;;;;;17.60;8.00;;;9.00;99.90;;;;;;5051285;28;20745;-79
2022/04/15 07:31:25;;;;;;;16.07;7.90;;;9.00;99.90;;;;;;5051981;28;20265;-79
2022/04/15 07:33:51;;;;;;;12.33;7.17;;;9.10;99.90;;;;;;5034363;28;20169;-79
2022/04/15 07:39:04;;;;;;;14.23;8.07;;;9.00;99.90;;;;;;5052565;28;20186;-79
2022/04/15 07:41:30;;;;;;;16.10;8.10;;;9.10;99.90;;;;;;5033777;28;20615;-79
2022/04/15 07:43:56;;;;;;;14.60;7.43;;;9.00;99.90;;;;;;5052216;28;20193;-79
2022/04/15 07:46:21;;;;;;;15.07;8.13;;;9.20;99.90;;;;;;5034229;28;20645;-78
2022/04/15 07:48:47;;;;;;;14.03;6.83;;;9.30;99.90;;;;;;5051911;28;20197;-79
2022/04/15 07:51:12;;;;;;;13.40;7.50;;;9.20;99.90;;;;;;5033491;28;20188;-79
2022/04/15 07:53:38;;;;;;;16.93;7.73;;;9.20;99.90;;;;;;5050651;28;20196;-79
2022/04/15 07:56:04;;;;;;;11.13;7.63;;;9.20;99.90;;;;;;5051956;28;20176;-79
2022/04/15 07:58:30;;;;;;;16.87;7.97;;;9.30;99.90;;;;;;5033821;28;20222;-79
2022/04/15 08:00:55;;;;;;;18.50;7.80;;;9.30;99.90;;;;;;5034023;28;20197;-79
2022/04/15 08:03:25;;;;;;;15.67;7.53;;;9.50;99.90;;;;;;5049043;28;20248;-79
2022/04/15 08:05:51;;;;;;;16.77;8.47;;;9.50;99.90;;;;;;5051574;28;20221;-79
2022/04/15 08:08:16;;;;;;;14.63;8.00;;;9.40;99.90;;;;;;5033979;28;20198;-79
2022/04/15 08:10:42;;;;;;;13.57;8.60;;;9.40;99.90;;;;;;5050558;28;20185;-78
2022/04/15 08:13:07;;;;;;;12.13;7.43;;;9.30;99.90;;;;;;5033671;28;20201;-79
2022/04/15 08:15:33;;;;;;;12.77;8.00;;;9.30;99.90;;;;;;5051822;28;20165;-78
2022/04/15 08:17:59;;;;;;;13.50;8.23;;;9.30;99.90;;;;;;5033767;28;20303;-79
2022/04/15 08:20:25;;;;;;;14.23;8.03;;;9.40;99.90;;;;;;5034162;28;20712;-79
2022/04/15 08:22:51;;;;;;;15.20;7.87;;;9.30;99.90;;;;;;5051012;28;20694;-79
2022/04/15 08:25:16;;;;;;;14.23;8.30;;;9.30;99.90;;;;;;5051406;28;20184;-78
2022/04/15 08:27:42;;;;;;;16.90;8.83;;;9.30;99.90;;;;;;5051602;28;20195;-79
2022/04/15 08:30:08;;;;;;;14.83;8.47;;;9.20;99.90;;;;;;5051617;28;20180;-78
2022/04/15 08:32:33;;;;;;;15.77;8.93;;;9.20;99.90;;;;;;5051458;28;20192;-78
2022/04/15 08:35:07;;;;;;;18.87;9.10;;;9.20;99.90;;;;;;5051331;28;20170;-78
2022/04/15 08:37:34;;;;;;;14.87;9.50;;;9.40;99.90;;;;;;5051571;28;20176;-79
2022/04/15 08:40:00;;;;;;;17.20;9.03;;;9.40;99.90;;;;;;5051594;28;20194;-78
2022/04/15 08:42:26;;;;;;;16.23;9.70;;;9.40;99.90;;;;;;5036670;28;20175;-78
2022/04/15 08:44:53;;;;;;;16.93;9.30;;;9.40;99.90;;;;;;5054839;28;20183;-79
2022/04/15 08:47:19;;;;;;;19.47;9.37;;;9.20;99.90;;;;;;5054811;28;20176;-78
2022/04/15 08:49:45;;;;;;;21.33;9.63;;;9.50;99.90;;;;;;5055115;28;20655;-78
2022/04/15 08:52:15;;;;;;;18.63;9.13;;;9.50;99.90;;;;;;5054290;28;20204;-78
2022/04/15 08:54:40;;;;;;;15.47;9.50;;;9.40;99.90;;;;;;5052150;28;20168;-78
2022/04/15 08:57:07;;;;;;;16.90;9.20;;;9.40;99.90;;;;;;5055248;28;20222;-78
2022/04/15 08:59:33;;;;;;;18.30;9.27;;;9.70;99.90;;;;;;5036772;28;20243;-79
2022/04/15 09:01:58;;;;;;;19.60;10.27;;;9.60;99.90;;;;;;5051484;28;20571;-78
2022/04/15 09:04:24;;;;;;;16.63;9.20;;;9.60;99.90;;;;;;5054701;28;20513;-78
2022/04/15 09:06:59;;;;;;;12.40;8.17;;;9.60;99.90;;;;;;5054592;28;20661;-78
2022/04/15 09:09:32;;;;;;;14.83;8.60;;;9.60;99.90;;;;;;5052643;28;20680;-80
2022/04/15 09:11:59;;;;;;;14.00;8.07;;;9.60;99.90;;;;;;5053662;28;20205;-78
2022/04/15 09:14:26;;;;;;;13.40;7.97;;;9.60;99.90;;;;;;5054629;28;20170;-79
2022/04/15 09:16:52;;;;;;;10.80;7.37;;;9.60;99.90;;;;;;5054410;28;20166;-78
2022/04/15 09:19:18;;;;;;;15.60;8.40;;;9.50;99.90;;;;;;5054273;28;20200;-80
2022/04/15 09:21:52;;;;;;;13.67;7.20;;;9.50;99.90;;;;;;5053886;28;20276;-79
2022/04/15 09:24:36;;;;;;;14.00;7.47;;;9.40;99.90;;;;;;5054225;28;20585;-77
2022/04/15 09:27:06;;;;;;;12.27;8.30;;;9.50;99.90;;;;;;5036215;28;20232;-81
2022/04/15 09:29:34;;;;;;;14.37;7.43;;;9.50;99.90;;;;;;5054177;28;20666;-78
2022/04/15 09:32:07;;;;;;;12.27;7.17;;;9.80;99.90;;;;;;5053217;28;20743;-78
2022/04/15 09:34:32;;;;;;;12.90;7.30;;;9.50;99.90;;;;;;5036118;28;20518;-78
2022/04/15 09:36:58;;;;;;;10.20;6.77;;;9.60;99.90;;;;;;5053886;28;20308;-77
2022/04/15 09:39:23;;;;;;;9.50;6.63;;;9.70;99.90;;;;;;5053685;28;20196;-78
2022/04/15 09:41:56;;;;;;;13.53;6.30;;;9.70;99.90;;;;;;5052955;28;20181;-78
2022/04/15 09:44:31;;;;;;;9.57;6.50;;;9.80;99.90;;;;;;5053767;28;20537;-77
2022/04/15 09:46:57;;;;;;;11.30;6.53;;;9.80;99.90;;;;;;5035870;28;20672;-79
2022/04/15 09:49:25;;;;;;;10.87;6.17;;;9.90;99.90;;;;;;5053624;28;20197;-78
2022/04/15 09:51:51;;;;;;;9.43;5.50;;;10.10;99.90;;;;;;5052234;28;20226;-77
2022/04/15 09:54:23;;;;;;;8.27;5.77;;;10.10;99.90;;;;;;5050616;28;20522;-78
2022/04/15 09:56:50;;;;;;;8.73;5.37;;;10.30;99.90;;;;;;5053496;28;20484;-79
2022/04/15 09:59:19;;;;;;;6.63;4.90;;;10.30;99.90;;;;;;5053761;28;20233;-79
2022/04/15 10:01:47;;;;;;;11.73;5.23;;;10.40;99.90;;;;;;5050590;28;20162;-78
2022/04/15 10:04:13;;;;;;;9.10;4.77;;;10.20;99.90;;;;;;5035383;28;20170;-79
2022/04/15 10:06:41;;;;;;;6.63;5.20;;;10.00;99.90;;;;;;5053821;28;20166;-79
2022/04/15 10:09:11;;;;;;;6.90;5.23;;;10.10;99.90;;;;;;5053217;28;20669;-78
2022/04/15 10:11:40;;;;;;;8.63;5.90;;;10.00;99.90;;;;;;5032100;28;20270;-79
2022/04/15 10:14:06;;;;;;;7.93;5.50;;;10.30;99.90;;;;;;5053717;28;20190;-79
2022/04/15 10:16:33;;;;;;;11.83;5.60;;;10.20;99.90;;;;;;5053114;28;20259;-79
2022/04/15 10:19:00;;;;;;;13.53;5.80;;;10.10;99.90;;;;;;5035171;28;20370;-79
2022/04/15 10:21:28;;;;;;;10.07;5.80;;;10.20;99.90;;;;;;5052785;28;20695;-79
2022/04/15 10:23:54;;;;;;;8.00;4.87;;;10.10;99.90;;;;;;5035303;28;20195;-79
2022/04/15 10:26:19;;;;;;;8.17;5.43;;;10.20;99.90;;;;;;5053254;28;20252;-78
2022/04/15 10:28:48;;;;;;;7.80;5.00;;;10.30;99.90;;;;;;5053051;28;20192;-80
2022/04/15 10:31:17;;;;;;;7.90;4.90;;;10.50;99.90;;;;;;5052520;28;20169;-78
2022/04/15 10:33:49;;;;;;;7.77;4.70;;;10.70;99.90;;;;;;5034888;28;20222;-79
2022/04/15 10:36:17;;;;;;;10.30;4.63;;;10.60;99.90;;;;;;5052916;28;20168;-78
2022/04/15 10:39:01;;;;;;;8.00;5.23;;;10.80;99.90;;;;;;5052704;28;20193;-79
2022/04/15 10:41:27;;;;;;;10.13;4.90;;;10.70;99.90;;;;;;5034836;28;20182;-80
2022/04/15 10:43:59;;;;;;;9.63;4.87;;;10.70;99.90;;;;;;5052761;28;20182;-77
2022/04/15 10:46:29;;;;;;;7.57;4.57;;;10.60;99.90;;;;;;5034765;28;20675;-78
2022/04/15 10:48:58;;;;;;;6.20;4.70;;;10.70;99.90;;;;;;5052821;28;20185;-77
2022/04/15 10:51:27;;;;;;;7.90;4.70;;;10.80;99.90;;;;;;5051917;28;20178;-79
2022/04/15 10:53:53;;;;;;;6.07;4.30;;;10.80;99.90;;;;;;5032429;28;20295;-79
2022/04/15 10:56:21;;;;;;;6.73;4.90;;;10.80;99.90;;;;;;5052240;28;20177;-77
2022/04/15 11:01:32;;;;;;;6.23;4.70;;;10.70;99.90;;;;;;5051615;28;20549;-77
2022/04/15 11:04:05;;;;;;;5.33;4.00;;;10.80;99.90;;;;;;5049848;28;20176;-77
2022/04/15 11:06:31;;;;;;;4.80;4.20;;;10.80;99.90;;;;;;5051999;28;20173;-78
2022/04/15 11:08:58;;;;;;;5.80;4.17;;;10.90;99.90;;;;;;5034311;28;20193;-77
2022/04/15 11:11:45;;;;;;;7.50;4.60;;;10.90;99.90;;;;;;5049633;28;20173;-78
2022/04/15 11:14:14;;;;;;;7.53;4.73;;;10.90;99.90;;;;;;5052670;28;20175;-80
2022/04/15 11:16:50;;;;;;;7.20;5.00;;;11.00;99.90;;;;;;5034424;28;20181;-77
2022/04/15 11:19:29;;;;;;;8.17;4.80;;;11.10;99.90;;;;;;5034207;28;20633;-79
2022/04/15 11:21:55;;;;;;;6.90;5.10;;;11.10;99.90;;;;;;5033625;28;20173;-77
2022/04/15 11:24:28;;;;;;;5.53;4.37;;;11.30;99.90;;;;;;5051540;28;20167;-77
2022/04/15 11:27:03;;;;;;;7.47;4.80;;;11.40;99.90;;;;;;5052059;28;20244;-78
2022/04/15 11:29:31;;;;;;;13.40;5.20;;;11.30;99.90;;;;;;5051894;28;20316;-77
2022/04/15 11:31:59;;;;;;;4.97;4.40;;;11.30;99.90;;;;;;5051211;28;20286;-79
2022/04/15 11:34:26;;;;;;;7.37;5.00;;;11.20;99.90;;;;;;5051890;28;20247;-78
2022/04/15 11:36:53;;;;;;;5.17;4.47;;;11.30;99.90;;;;;;5033765;28;20177;-77
2022/04/15 11:39:21;;;;;;;6.00;4.37;;;11.30;99.90;;;;;;5051513;28;20206;-77
2022/04/15 11:41:55;;;;;;;6.47;4.63;;;11.30;99.90;;;;;;5051201;28;20165;-78
2022/04/15 11:44:27;;;;;;;10.13;5.53;;;11.30;99.90;;;;;;5052254;28;20209;-78
2022/04/15 11:46:53;;;;;;;7.00;4.90;;;11.30;99.90;;;;;;5051819;28;20159;-78
2022/04/15 11:49:27;;;;;;;7.43;5.13;;;11.00;99.90;;;;;;5034062;28;20211;-79
2022/04/15 11:51:54;;;;;;;8.33;5.30;;;11.10;99.90;;;;;;5051609;28;20176;-78
2022/04/15 11:54:38;;;;;;;7.33;5.67;;;11.30;99.90;;;;;;5049509;28;20202;-78
2022/04/15 11:57:05;;;;;;;7.27;5.30;;;11.40;99.90;;;;;;5051813;28;20168;-78
2022/04/15 11:59:38;;;;;;;7.07;5.00;;;11.20;99.90;;;;;;5052397;28;20684;-78
2022/04/15 12:02:04;;;;;;;7.83;5.30;;;11.30;99.90;;;;;;5030890;28;20262;-77
2022/04/15 12:04:29;;;;;;;10.70;5.33;;;11.40;99.90;;;;;;5051509;28;20211;-79
2022/04/15 12:06:55;;;;;;;8.33;5.00;;;11.20;99.90;;;;;;5033674;28;20175;-77
2022/04/15 12:09:23;;;;;;;7.57;5.20;;;11.40;99.90;;;;;;5033609;28;20195;-76
2022/04/15 12:11:49;;;;;;;6.80;5.30;;;11.50;99.90;;;;;;5049221;28;20166;-79
2022/04/15 12:14:17;;;;;;;8.03;5.10;;;11.70;99.90;;;;;;5051715;28;20177;-79
2022/04/15 12:16:44;;;;;;;7.67;5.27;;;11.70;99.90;;;;;;5036739;28;20170;-79
2022/04/15 12:19:09;;;;;;;9.10;5.50;;;11.70;99.90;;;;;;5055373;28;20222;-77
2022/04/15 12:21:36;;;;;;;10.63;5.97;;;11.80;99.90;;;;;;5036914;28;20647;-79
2022/04/15 12:24:05;;;;;;;8.83;5.73;;;11.50;99.90;;;;;;5037005;28;20170;-79
2022/04/15 12:26:44;;;;;;;7.80;5.37;;;11.70;99.90;;;;;;5054980;28;20208;-78
2022/04/15 12:32:16;;;;;;;11.33;5.30;;;11.60;99.90;;;;;;5055149;28;20189;-78
2022/04/15 12:34:45;;;;;;;7.97;5.77;;;11.50;99.90;;;;;;5037116;28;20182;-79
2022/04/15 12:37:33;;;;;;;8.57;5.20;;;11.60;99.90;;;;;;5055279;28;20193;-77
2022/04/15 12:40:07;;;;;;;6.87;5.07;;;11.60;99.90;;;;;;5033444;28;20164;-80
2022/04/15 12:42:34;;;;;;;8.30;5.63;;;11.20;99.90;;;;;;5054423;28;20591;-80
2022/04/15 12:45:00;;;;;;;9.40;5.40;;;11.30;99.90;;;;;;5055252;28;20171;-77
2022/04/15 12:47:27;;;;;;;8.77;5.27;;;11.10;99.90;;;;;;5036073;28;20204;-78
2022/04/15 12:49:53;;;;;;;9.83;5.90;;;11.10;99.90;;;;;;5052221;28;20181;-79
2022/04/15 12:52:19;;;;;;;7.90;5.40;;;11.00;99.90;;;;;;5053987;28;20266;-79